• Join FlightAware (Why Join?)
  • Login
  • US Flag 
05:50AM EDT


 

Airport Tracker/Info


-or-


 

Live Flight TrackerFlight Track Log ✈ EGF3994 ✈ 08-Jun-2013 ✈ KORD - KDAY

Flight Track Log - Related Links

Times and Time Zones

All times are in EDT time to prevent confusion due to time zone crossing. See the EGF3994 flight status page for this flight to view local times or setup timezone preferences in your user account.

Time Position Orientation Groundspeed Altitude Reporting Facility
EDT Latitude Longitude Course Direction KTS MPH feet Rate Location/Type
06:47PM 41.9333 -87.9167 90° East 189 217 2,200  Level Chicago TRACON
06:48PM 41.9000 -87.8500 124° Southeast 218 251 4,500 1,440 Climbing Chicago TRACON
06:49PM 41.9667 -87.6128 90° East  Level FlightAware Approximate
06:49PM 41.9000 -87.7500 90° East 267 307 5,100  Level Chicago TRACON
06:50PM 41.9603 -87.4698 98° East  Level FlightAware Approximate
06:50PM 41.8992 -87.6592 91° East 263 303 6,200  Level Chicago Center
06:51PM 41.9472 -87.3273 95° East  Level FlightAware Approximate
06:52PM 41.9370 -87.1845 95° East  Level FlightAware Approximate
06:52PM 41.9064 -87.5536 85° East 281 323 8,600  Level Chicago Center
06:53PM 41.9333 -87.0609 90° East  Level FlightAware Approximate
06:53PM 41.9147 -87.4444 84° East 291 335 10,800  Level Chicago Center
06:54PM 41.9267 -87.2997 84° East 320 368 12,900 1,500 Climbing Chicago Center
06:55PM 41.9375 -87.1711 83° East 344 396 13,900 1,080 Climbing Chicago Center
06:56PM 41.9208 -87.0286 99° East 382 440 15,200 1,260 Climbing Chicago Center
06:57PM 41.9031 -86.8825 99° East 393 452 16,500 1,260 Climbing Chicago Center
06:58PM 41.8864 -86.7322 98° East 404 465 17,800 1,200 Climbing Chicago Center
06:59PM 41.8514 -86.5814 107° East 413 475 19,100 1,260 Climbing Chicago Center
07:00PM 41.7811 -86.4619 128° Southeast 409 471 20,500 1,680 Climbing Chicago Center
07:01PM 41.6947 -86.3194 129° Southeast 412 474 22,600 1,200 Climbing Chicago Center
07:02PM 41.6233 -86.1983 128° Southeast 416 479 23,000 180 Climbing Chicago Center
07:03PM 41.5433 -86.0672 129° Southeast 450 518 23,000  Level Chicago Center
07:04PM 41.4614 -85.9286 128° Southeast 474 545 23,000  Level Chicago Center
07:05PM 41.3758 -85.7906 130° Southeast 486 559 23,000  Level Chicago Center
07:06PM 41.2925 -85.6531 129° Southeast 484 557 23,000  Level Chicago Center
07:07PM 41.1928 -85.4861 128° Southeast 486 559 23,000 -600 Level Chicago Center
07:08PM 41.1106 -85.3539 130° Southeast 474 545 21,800 -1,440 Descending Chicago Center
07:09PM 41.0289 -85.2167 128° Southeast 476 548 20,100 -1,620 Descending Chicago Center
07:10PM 40.9497 -85.0889 129° Southeast 462 532 18,500 -1,560 Descending Chicago Center
07:11PM 40.8739 -84.9689 130° Southeast 439 505 16,900 -1,380 Descending Chicago Center
07:12PM 40.7972 -84.8450 129° Southeast 436 502 15,700 -960 Descending Chicago Center
07:13PM 40.7100 -84.7075 130° Southeast 415 478 15,000 -420 Descending Chicago Center
07:14PM 40.6578 -84.6247 130° Southeast 415 478 15,000 -720 Level Indianapolis Center
07:15PM 40.5833 -84.5078 130° Southeast 416 479 13,800 -1,200 Descending Indianapolis Center
07:15PM 40.5522 -84.4561 128° Southeast 412 474 13,300 -1,200 Descending Indianapolis Center
07:16PM 40.5128 -84.3933 130° Southeast 405 466 12,600 -1,200 Descending Indianapolis Center
07:17PM 40.4392 -84.2853 132° Southeast 397 457 11,400 -1,020 Descending Indianapolis Center
07:18PM 40.3586 -84.2303 153° Southeast 328 377 10,600 -1,260 Descending Indianapolis Center
07:19PM 40.2839 -84.2200 174° South 274 315 8,900 -1,920 Descending Indianapolis Center
07:20PM 40.2083 -84.2233 182° South 274 315 6,700 -1,980 Descending Indianapolis Center
07:21PM 40.1344 -84.2178 177° South 271 312 4,900 -1,800 Descending Indianapolis Center